Gildeskaal — LLDI — position and weather

sailwx.info

Track history (hours):
 
Tides and Currents Weather Stations Pressure Air Temp Water Temp Dewpoint Dewpoint Depression Visibility Wind Speed Wind Dir Waves Ship Positions

Gildeskaal

Last reported at 2014-Aug-21 17:33 UTC. Time now 2014-Aug-21 18:02 UTC.
Position N 67°07' E 013°59'.

Length 52 m; draft 3.2 m.

Type: Ship. MMSI: 259680000.

Date/timePositionNaut miles runAvg speedWind from/ knotsBaromVisibWave heightAir tempDewpointWater temp
2014-Aug-21 17:33N 67°07' E 013°59'1 0.7
2014-Aug-21 16:20N 67°07' E 013°59'2 1.7
2014-Aug-21 15:22N 67°08' E 013°59'2 0.8
2014-Aug-21 13:10N 67°06' E 013°59'2 2.8
2014-Aug-21 12:33N 67°08' E 013°59'0 0.0
2014-Aug-21 11:33N 67°08' E 013°59'2 0.8
2014-Aug-21 09:25N 67°06' E 013°59'0 0.1
2014-Aug-21 05:08N 67°07' E 013°59'1 0.1
2014-Aug-20 19:26N 67°08' E 013°59'2 1.5
2014-Aug-20 18:05N 67°06' E 013°59'1 2.6
2014-Aug-20 17:33N 67°08' E 013°59'1 0.7
2014-Aug-20 16:20N 67°07' E 013°59'1 1.5
2014-Aug-20 15:21N 67°08' E 013°59'3 1.4
2014-Aug-20 13:19N 67°05' E 014°00'3 3.2
2014-Aug-20 12:27N 67°08' E 013°59'0 0.0
2014-Aug-20 11:17N 67°08' E 013°59'2 1.1
2014-Aug-20 09:28N 67°06' E 013°59'2 1.8
2014-Aug-20 08:23N 67°08' E 013°59'1 1.4
2014-Aug-20 07:33N 67°07' E 013°59'0 0.1
2014-Aug-20 05:08N 67°07' E 013°59'1 0.4
2014-Aug-20 02:28N 67°08' E 013°59'0 0.0
2014-Aug-19 23:32N 67°08' E 013°59'0 0.0
2014-Aug-19 19:19N 67°08' E 013°59'1 0.6
2014-Aug-19 17:33N 67°07' E 013°59'2 1.9
2014-Aug-19 16:33N 67°05' E 014°00'0 0.0
2014-Aug-19 13:21N 67°05' E 013°60'1 0.2
2014-Aug-19 09:31N 67°06' E 013°59'0 0.0
2014-Aug-19 05:15N 67°06' E 013°59'2 1.1
2014-Aug-19 03:08N 67°08' E 013°59'0 0.0
2014-Aug-19 02:19N 67°08' E 013°59'0 0.0
2014-Aug-19 01:31N 67°08' E 013°59'0 0.0
2014-Aug-19 00:30N 67°08' E 013°59'0 0.0
2014-Aug-18 19:20N 67°08' E 013°59'3 2.7
2014-Aug-18 18:12N 67°05' E 014°00'1 0.6
2014-Aug-18 16:24N 67°06' E 013°58'1 0.4
2014-Aug-18 12:28N 67°08' E 013°59'1 0.5
2014-Aug-18 09:30N 67°06' E 013°59'1 0.3
2014-Aug-18 05:22N 67°05' E 014°00'3 3.1
2014-Aug-18 04:22N 67°08' E 013°59'0 0.0
2014-Aug-18 03:32N 67°08' E 013°59'0 0.0
2014-Aug-18 02:33N 67°08' E 013°59'3 0.3
2014-Aug-17 17:17N 67°05' E 013°60'1 1.2
2014-Aug-17 16:28N 67°06' E 013°59'1 0.7
2014-Aug-17 15:05N 67°05' E 013°60'3 5.6
2014-Aug-17 14:33N 67°08' E 013°59'2 1.9
2014-Aug-17 13:29N 67°06' E 013°59'1 0.1
2014-Aug-16 15:32N 67°05' E 013°60'1 0.2
2014-Aug-16 09:28N 67°06' E 013°58'2 1.4
2014-Aug-16 08:12N 67°08' E 013°59'1 1.3
2014-Aug-16 07:33N 67°07' E 013°59'2 1.9
2014-Aug-16 06:22N 67°05' E 013°60'3 2.9
2014-Aug-16 05:19N 67°08' E 013°59'0 0.0
2014-Aug-16 03:22N 67°08' E 013°59'0 0.0
2014-Aug-15 22:33N 67°08' E 013°59'0 0.0
2014-Aug-15 21:23N 67°08' E 013°59'0 0.0
2014-Aug-15 20:32N 67°08' E 013°59'0 0.0
2014-Aug-15 19:21N 67°08' E 013°59'4 4.3
2014-Aug-15 18:28N 67°05' E 014°04'3 0.8
2014-Aug-15 15:22N 67°06' E 013°58'0 0.2
2014-Aug-15 13:14N 67°06' E 013°59'2 1.0
2014-Aug-15 11:07N 67°08' E 013°59'2 1.2
2014-Aug-15 09:31N 67°06' E 013°58'2 1.9
2014-Aug-15 08:30N 67°08' E 013°59'2 0.7
2014-Aug-15 05:17N 67°06' E 013°58'2 3.0
2014-Aug-15 04:33N 67°08' E 013°59'0 0.0
2014-Aug-15 03:32N 67°08' E 013°59'0 0.0
2014-Aug-14 19:27N 67°08' E 013°59'3 2.6
2014-Aug-14 18:16N 67°05' E 014°00'0 0.0
2014-Aug-14 16:31N 67°05' E 014°00'3 3.1
2014-Aug-14 15:31N 67°08' E 013°59'2 0.8
2014-Aug-14 13:12N 67°06' E 013°59'2 1.7
2014-Aug-14 12:07N 67°08' E 013°59'0 0.0
2014-Aug-14 11:30N 67°08' E 013°59'2 0.9
2014-Aug-14 09:29N 67°06' E 013°58'2 1.8
2014-Aug-14 08:28N 67°08' E 013°59'3 1.0
2014-Aug-14 05:22N 67°05' E 014°00'3 0.6
2014-Aug-14 00:28N 67°08' E 013°59'0 0.0
2014-Aug-13 23:25N 67°08' E 013°59'0 0.0
2014-Aug-13 21:15N 67°08' E 013°59'0 0.0
2014-Aug-13 20:30N 67°08' E 013°59'0 0.0
2014-Aug-13 19:33N 67°08' E 013°59'3 2.5
2014-Aug-13 18:16N 67°05' E 014°00'0 0.1
2014-Aug-13 16:31N 67°05' E 013°60'3 2.9
2014-Aug-13 15:30N 67°08' E 013°59'2 0.7
2014-Aug-13 13:11N 67°07' E 013°58'2 2.5
2014-Aug-13 12:32N 67°08' E 013°59'0 0.0
2014-Aug-13 11:26N 67°08' E 013°59'2 1.0
2014-Aug-13 09:29N 67°06' E 013°59'1 0.3
2014-Aug-13 05:23N 67°05' E 014°00'3 3.2
2014-Aug-13 04:25N 67°08' E 013°59'0 0.0
2014-Aug-13 03:33N 67°08' E 013°59'0 0.0
2014-Aug-13 02:32N 67°08' E 013°59'0 0.0
2014-Aug-13 01:28N 67°08' E 013°59'0 0.0
2014-Aug-13 00:32N 67°08' E 013°59'0 0.0
2014-Aug-12 22:29N 67°08' E 013°59'0 0.0
2014-Aug-12 20:15N 67°08' E 013°59'0 0.0
2014-Aug-12 19:25N 67°08' E 013°59'3 2.9
2014-Aug-12 18:16N 67°05' E 014°01'2 3.2
2014-Aug-12 17:33N 67°07' E 013°59'2 2.1
2014-Aug-12 16:33N 67°05' E 014°00'3 3.2
2014-Aug-12 15:33N 67°08' E 013°59'1 0.2
2014-Aug-12 13:05N 67°08' E 013°59'1 0.4
2014-Aug-12 09:28N 67°06' E 013°59'2 1.7
2014-Aug-12 08:19N 67°08' E 013°59'2 1.9
2014-Aug-12 07:30N 67°07' E 013°59'0 0.1
2014-Aug-12 05:09N 67°07' E 013°59'1 0.8
2014-Aug-12 03:17N 67°08' E 013°59'0 0.0
2014-Aug-12 01:19N 67°08' E 013°59'0 0.0
2014-Aug-12 00:21N 67°08' E 013°59'0 0.0
2014-Aug-11 22:32N 67°08' E 013°59'0 0.0
2014-Aug-11 21:28N 67°08' E 013°59'0 0.0
2014-Aug-11 20:12N 67°08' E 013°59'0 0.0
2014-Aug-11 19:29N 67°08' E 013°59'3 2.5
2014-Aug-11 18:20N 67°05' E 014°00'  
Track history (hours):
 
Tides and Currents Weather Stations Pressure Air Temp Water Temp Dewpoint Dewpoint Depression Visibility Wind Speed Wind Dir Waves Ship Positions

Gildeskaal

Last reported at 2014-Aug-21 17:33 UTC. Time now 2014-Aug-21 18:02 UTC.
Position N 67°07' E 013°59'.

Length 52 m; draft 3.2 m.

Type: Ship. MMSI: 259680000.

Date/timePositionNaut miles runAvg speedWind from/ knotsBaromVisibWave heightAir tempDewpointWater temp
2014-Aug-21 17:33N 67°07' E 013°59'1 0.7
2014-Aug-21 16:20N 67°07' E 013°59'2 1.7
2014-Aug-21 15:22N 67°08' E 013°59'2 0.8
2014-Aug-21 13:10N 67°06' E 013°59'2 2.8
2014-Aug-21 12:33N 67°08' E 013°59'0 0.0
2014-Aug-21 11:33N 67°08' E 013°59'2 0.8
2014-Aug-21 09:25N 67°06' E 013°59'0 0.1
2014-Aug-21 05:08N 67°07' E 013°59'1 0.1
2014-Aug-20 19:26N 67°08' E 013°59'2 1.5
2014-Aug-20 18:05N 67°06' E 013°59'1 2.6
2014-Aug-20 17:33N 67°08' E 013°59'1 0.7
2014-Aug-20 16:20N 67°07' E 013°59'1 1.5
2014-Aug-20 15:21N 67°08' E 013°59'3 1.4
2014-Aug-20 13:19N 67°05' E 014°00'3 3.2
2014-Aug-20 12:27N 67°08' E 013°59'0 0.0
2014-Aug-20 11:17N 67°08' E 013°59'2 1.1
2014-Aug-20 09:28N 67°06' E 013°59'2 1.8
2014-Aug-20 08:23N 67°08' E 013°59'1 1.4
2014-Aug-20 07:33N 67°07' E 013°59'0 0.1
2014-Aug-20 05:08N 67°07' E 013°59'1 0.4
2014-Aug-20 02:28N 67°08' E 013°59'0 0.0
2014-Aug-19 23:32N 67°08' E 013°59'0 0.0
2014-Aug-19 19:19N 67°08' E 013°59'1 0.6
2014-Aug-19 17:33N 67°07' E 013°59'2 1.9
2014-Aug-19 16:33N 67°05' E 014°00'0 0.0
2014-Aug-19 13:21N 67°05' E 013°60'1 0.2
2014-Aug-19 09:31N 67°06' E 013°59'0 0.0
2014-Aug-19 05:15N 67°06' E 013°59'2 1.1
2014-Aug-19 03:08N 67°08' E 013°59'0 0.0
2014-Aug-19 02:19N 67°08' E 013°59'0 0.0
2014-Aug-19 01:31N 67°08' E 013°59'0 0.0
2014-Aug-19 00:30N 67°08' E 013°59'0 0.0
2014-Aug-18 19:20N 67°08' E 013°59'3 2.7
2014-Aug-18 18:12N 67°05' E 014°00'1 0.6
2014-Aug-18 16:24N 67°06' E 013°58'1 0.4
2014-Aug-18 12:28N 67°08' E 013°59'1 0.5
2014-Aug-18 09:30N 67°06' E 013°59'1 0.3
2014-Aug-18 05:22N 67°05' E 014°00'3 3.1
2014-Aug-18 04:22N 67°08' E 013°59'0 0.0
2014-Aug-18 03:32N 67°08' E 013°59'0 0.0
2014-Aug-18 02:33N 67°08' E 013°59'3 0.3
2014-Aug-17 17:17N 67°05' E 013°60'1 1.2
2014-Aug-17 16:28N 67°06' E 013°59'1 0.7
2014-Aug-17 15:05N 67°05' E 013°60'3 5.6
2014-Aug-17 14:33N 67°08' E 013°59'2 1.9
2014-Aug-17 13:29N 67°06' E 013°59'1 0.1
2014-Aug-16 15:32N 67°05' E 013°60'1 0.2
2014-Aug-16 09:28N 67°06' E 013°58'2 1.4
2014-Aug-16 08:12N 67°08' E 013°59'1 1.3
2014-Aug-16 07:33N 67°07' E 013°59'2 1.9
2014-Aug-16 06:22N 67°05' E 013°60'3 2.9
2014-Aug-16 05:19N 67°08' E 013°59'0 0.0
2014-Aug-16 03:22N 67°08' E 013°59'0 0.0
2014-Aug-15 22:33N 67°08' E 013°59'0 0.0
2014-Aug-15 21:23N 67°08' E 013°59'0 0.0
2014-Aug-15 20:32N 67°08' E 013°59'0 0.0
2014-Aug-15 19:21N 67°08' E 013°59'4 4.3
2014-Aug-15 18:28N 67°05' E 014°04'3 0.8
2014-Aug-15 15:22N 67°06' E 013°58'0 0.2
2014-Aug-15 13:14N 67°06' E 013°59'2 1.0
2014-Aug-15 11:07N 67°08' E 013°59'2 1.2
2014-Aug-15 09:31N 67°06' E 013°58'2 1.9
2014-Aug-15 08:30N 67°08' E 013°59'2 0.7
2014-Aug-15 05:17N 67°06' E 013°58'2 3.0
2014-Aug-15 04:33N 67°08' E 013°59'0 0.0
2014-Aug-15 03:32N 67°08' E 013°59'0 0.0
2014-Aug-14 19:27N 67°08' E 013°59'3 2.6
2014-Aug-14 18:16N 67°05' E 014°00'0 0.0
2014-Aug-14 16:31N 67°05' E 014°00'3 3.1
2014-Aug-14 15:31N 67°08' E 013°59'2 0.8
2014-Aug-14 13:12N 67°06' E 013°59'2 1.7
2014-Aug-14 12:07N 67°08' E 013°59'0 0.0
2014-Aug-14 11:30N 67°08' E 013°59'2 0.9
2014-Aug-14 09:29N 67°06' E 013°58'2 1.8
2014-Aug-14 08:28N 67°08' E 013°59'3 1.0
2014-Aug-14 05:22N 67°05' E 014°00'3 0.6
2014-Aug-14 00:28N 67°08' E 013°59'0 0.0
2014-Aug-13 23:25N 67°08' E 013°59'0 0.0
2014-Aug-13 21:15N 67°08' E 013°59'0 0.0
2014-Aug-13 20:30N 67°08' E 013°59'0 0.0
2014-Aug-13 19:33N 67°08' E 013°59'3 2.5
2014-Aug-13 18:16N 67°05' E 014°00'0 0.1
2014-Aug-13 16:31N 67°05' E 013°60'3 2.9
2014-Aug-13 15:30N 67°08' E 013°59'2 0.7
2014-Aug-13 13:11N 67°07' E 013°58'2 2.5
2014-Aug-13 12:32N 67°08' E 013°59'0 0.0
2014-Aug-13 11:26N 67°08' E 013°59'2 1.0
2014-Aug-13 09:29N 67°06' E 013°59'1 0.3
2014-Aug-13 05:23N 67°05' E 014°00'3 3.2
2014-Aug-13 04:25N 67°08' E 013°59'0 0.0
2014-Aug-13 03:33N 67°08' E 013°59'0 0.0
2014-Aug-13 02:32N 67°08' E 013°59'0 0.0
2014-Aug-13 01:28N 67°08' E 013°59'0 0.0
2014-Aug-13 00:32N 67°08' E 013°59'0 0.0
2014-Aug-12 22:29N 67°08' E 013°59'0 0.0
2014-Aug-12 20:15N 67°08' E 013°59'0 0.0
2014-Aug-12 19:25N 67°08' E 013°59'3 2.9
2014-Aug-12 18:16N 67°05' E 014°01'2 3.2
2014-Aug-12 17:33N 67°07' E 013°59'2 2.1
2014-Aug-12 16:33N 67°05' E 014°00'3 3.2
2014-Aug-12 15:33N 67°08' E 013°59'1 0.2
2014-Aug-12 13:05N 67°08' E 013°59'1 0.4
2014-Aug-12 09:28N 67°06' E 013°59'2 1.7
2014-Aug-12 08:19N 67°08' E 013°59'2 1.9
2014-Aug-12 07:30N 67°07' E 013°59'0 0.1
2014-Aug-12 05:09N 67°07' E 013°59'1 0.8
2014-Aug-12 03:17N 67°08' E 013°59'0 0.0
2014-Aug-12 01:19N 67°08' E 013°59'0 0.0
2014-Aug-12 00:21N 67°08' E 013°59'0 0.0
2014-Aug-11 22:32N 67°08' E 013°59'0 0.0
2014-Aug-11 21:28N 67°08' E 013°59'0 0.0
2014-Aug-11 20:12N 67°08' E 013°59'0 0.0
2014-Aug-11 19:29N 67°08' E 013°59'3 2.5
2014-Aug-11 18:20N 67°05' E 014°00'  

Dump ship's entire track history